Impacts METAR Board INFO
IDs:

KLAX - Los Angeles Intl, CA, US

Updated at: 2101 UTC 11 Dec 2017
Potential Impact None Slight Moderate High
Time11/09Z 11/10Z 11/11Z 11/12Z 11/13Z 11/14Z 11/15Z 11/16Z 11/17Z 11/18Z 11/19Z 11/20Z 11/21Z
VIS10 10 10 10 10 10 10 10 10 10 10 10 10
CIG280 280 280 -- -- 250 250 250 250 250 -- 180 200
CoverBKNBKNBKNSCTSCTBKNBKNBKNBKNBKNSCTBKNBKN
FltCatVFRVFRVFRVFRVFRVFRVFRVFRVFRVFRVFRVFRVFR
WX--------------------------
WDir0604060005090060000
WSpd0 3 5 5 0 3 5 5 4 4 4 0 3
WGst-- -- -- -- -- -- -- -- -- -- -- -- --
Raw hourly METARs
KLAX 110853Z 00000KT 10SM FEW200 BKN280 18/M08 A3016 RMK AO2 SLP210 T01781078 58001
KLAX 110953Z 06003KT 10SM FEW200 BKN280 17/M08 A3017 RMK AO2 SLP212 T01721078
KLAX 111053Z 04005KT 10SM FEW200 BKN280 17/M08 A3016 RMK AO2 SLP209 T01721078
KLAX 111153Z COR 06005KT 10SM FEW200 SCT280 16/M09 A3015 RMK AO2 SLP205 T01611089 10228 20156 58005
KLAX 111253Z 00000KT 10SM FEW200 SCT280 17/M11 A3015 RMK AO2 SLP206 T01721106
KLAX 111353Z VRB03KT 10SM SCT180 BKN250 15/M09 A3016 RMK AO2 SLP210 T01501094
KLAX 111453Z 05005KT 10SM SCT090 SCT180 BKN250 17/M11 A3017 RMK AO2 SLP215 T01671106 53009
KLAX 111553Z 09005KT 10SM SCT090 SCT180 BKN250 16/M09 A3020 RMK AO2 SLP223 T01611089
KLAX 111653Z VRB04KT 10SM FEW100 SCT180 BKN250 22/M11 A3021 RMK AO2 SLP227 T02171106
KLAX 111753Z 06004KT 10SM FEW100 FEW180 BKN250 24/M10 A3022 RMK AO2 SLP232 T02391100 10239 20139 51017
KLAX 111853Z VRB04KT 10SM FEW100 SCT160 SCT200 27/M12 A3021 RMK AO2 SLP228 T02671117
KLAX 111953Z 00000KT 10SM FEW100 SCT140 BKN180 28/M13 A3018 RMK AO2 SLP219 T02781128
KLAX 112053Z VRB03KT 10SM FEW080 FEW110 SCT150 BKN200 28/M14 A3016 RMK AO2 SLP212 T02831139 58019